createdAt,value
2023-02-13T00:00:51.334Z,7.59
2023-02-13T00:04:16.523Z,7.58
2023-02-13T00:07:41.700Z,7.55
2023-02-13T00:11:06.908Z,7.5
2023-02-13T00:14:32.067Z,7.42
2023-02-13T00:17:57.240Z,7.41
2023-02-13T00:21:22.405Z,7.39
2023-02-13T00:24:47.590Z,7.38
2023-02-13T00:28:12.831Z,7.37
2023-02-13T00:31:38.024Z,7.36
2023-02-13T00:35:03.115Z,7.33
2023-02-13T00:38:28.310Z,7.31
2023-02-13T00:41:53.493Z,7.27
2023-02-13T00:45:18.683Z,7.21
2023-02-13T00:48:43.871Z,7.15
2023-02-13T00:52:09.012Z,7.1
2023-02-13T00:55:34.216Z,7.05
2023-02-13T00:58:59.374Z,7
2023-02-13T01:02:24.591Z,6.95
2023-02-13T01:05:49.759Z,6.91
2023-02-13T01:09:14.927Z,6.87
2023-02-13T01:12:40.120Z,6.82
2023-02-13T01:16:05.453Z,6.76
2023-02-13T01:19:30.535Z,6.68
2023-02-13T01:22:55.674Z,6.62
2023-02-13T01:26:20.852Z,6.58
2023-02-13T01:29:46.049Z,6.55
2023-02-13T01:33:11.216Z,6.47
2023-02-13T01:36:36.426Z,6.39
2023-02-13T01:40:01.577Z,6.35
2023-02-13T01:43:26.751Z,6.27
2023-02-13T01:46:51.973Z,6.15
2023-02-13T01:50:17.110Z,6.05
2023-02-13T01:53:42.342Z,5.91
2023-02-13T01:57:07.504Z,5.85
2023-02-13T02:00:32.681Z,5.79
2023-02-13T02:03:57.858Z,5.73
2023-02-13T02:07:23.020Z,5.67
2023-02-13T02:10:48.230Z,5.65
2023-02-13T02:14:13.364Z,5.64
2023-02-13T02:17:38.591Z,5.63
2023-02-13T02:21:03.737Z,5.61
2023-02-13T02:24:28.925Z,5.6
2023-02-13T02:27:54.133Z,5.6
2023-02-13T02:31:19.349Z,5.63
2023-02-13T02:34:44.489Z,5.61
2023-02-13T02:38:09.681Z,5.58
2023-02-13T02:41:34.876Z,5.56
2023-02-13T02:45:00.075Z,5.54
2023-02-13T02:48:25.216Z,5.56
2023-02-13T02:51:50.408Z,5.55
2023-02-13T02:55:15.579Z,5.53
2023-02-13T02:58:40.779Z,5.47
2023-02-13T03:02:06.001Z,5.45
2023-02-13T03:05:31.144Z,5.38
2023-02-13T03:08:56.340Z,5.3
2023-02-13T03:12:21.520Z,5.22
2023-02-13T03:15:46.714Z,5.16
2023-02-13T03:19:11.922Z,5.11
2023-02-13T03:22:37.079Z,5.06
2023-02-13T03:26:02.276Z,5.03
2023-02-13T03:29:27.445Z,5.04
2023-02-13T03:32:52.614Z,5.02
2023-02-13T03:36:17.827Z,5.03
2023-02-13T03:39:42.997Z,5.01
2023-02-13T03:43:08.186Z,5.05
2023-02-13T03:46:33.387Z,5.07
2023-02-13T03:49:58.556Z,5.09
2023-02-13T03:53:23.759Z,5.12
2023-02-13T03:56:48.934Z,5.16
2023-02-13T04:00:14.096Z,5.23
2023-02-13T04:03:39.284Z,5.28
2023-02-13T04:07:04.487Z,5.31
2023-02-13T04:10:29.686Z,5.36
2023-02-13T04:13:54.830Z,5.4
2023-02-13T04:17:20.005Z,5.47
2023-02-13T04:20:45.188Z,5.54
2023-02-13T04:24:10.384Z,5.6
2023-02-13T04:27:35.610Z,5.65
2023-02-13T04:31:01.283Z,5.68
2023-02-13T04:34:25.949Z,5.69
2023-02-13T04:37:51.122Z,5.67
2023-02-13T04:41:16.290Z,5.65
2023-02-13T04:44:41.483Z,5.64
2023-02-13T04:48:06.657Z,5.6
2023-02-13T04:51:31.858Z,5.6
2023-02-13T04:54:57.048Z,5.6
2023-02-13T04:58:22.238Z,5.59
2023-02-13T05:01:47.554Z,5.59
2023-02-13T05:05:12.602Z,5.56
2023-02-13T05:08:37.788Z,5.53
2023-02-13T05:12:02.981Z,5.56
2023-02-13T05:15:28.194Z,5.58
2023-02-13T05:18:53.374Z,5.61
2023-02-13T05:22:18.523Z,5.64
2023-02-13T05:25:43.729Z,5.61
2023-02-13T05:29:08.882Z,5.59
2023-02-13T05:32:34.074Z,5.59
2023-02-13T05:35:59.317Z,5.63
2023-02-13T05:39:24.478Z,5.65
2023-02-13T05:42:49.688Z,5.63
2023-02-13T05:46:14.922Z,5.63
2023-02-13T05:49:40.071Z,5.57
2023-02-13T05:53:05.263Z,5.54
2023-02-13T05:56:30.409Z,5.54
2023-02-13T05:59:55.574Z,5.55
2023-02-13T06:03:20.789Z,5.54
2023-02-13T06:06:45.921Z,5.5
2023-02-13T06:10:11.264Z,5.49
2023-02-13T06:13:36.428Z,5.47
2023-02-13T06:17:01.592Z,5.5
2023-02-13T06:20:27.308Z,5.46
2023-02-13T06:23:52.518Z,5.49
2023-02-13T06:27:17.724Z,5.54
2023-02-13T06:30:42.929Z,5.56
2023-02-13T06:34:08.754Z,5.54
2023-02-13T06:37:33.922Z,5.61
2023-02-13T06:40:59.520Z,5.67
2023-02-13T06:44:24.404Z,5.73
2023-02-13T06:47:49.577Z,5.77
2023-02-13T06:51:14.756Z,5.82
2023-02-13T06:54:47.116Z,5.87
2023-02-13T06:58:05.133Z,5.92
2023-02-13T07:01:30.328Z,5.95
2023-02-13T07:04:55.492Z,5.99
2023-02-13T07:08:20.695Z,6.04
2023-02-13T07:11:45.858Z,6.05
2023-02-13T07:15:11.140Z,6.1
2023-02-13T07:18:37.624Z,6.16
2023-02-13T07:22:01.493Z,6.22
2023-02-13T07:25:26.679Z,6.29
2023-02-13T07:29:02.470Z,6.35
2023-02-13T07:32:17.095Z,6.41
2023-02-13T07:35:42.300Z,6.45
2023-02-13T07:39:07.537Z,6.5
2023-02-13T07:42:32.715Z,6.54
2023-02-13T07:45:58.241Z,6.6
2023-02-13T07:49:23.110Z,6.65
2023-02-13T07:52:48.329Z,6.68
2023-02-13T07:56:13.497Z,6.73
2023-02-13T07:59:38.696Z,6.77
2023-02-13T08:03:03.882Z,6.84
2023-02-13T08:06:29.068Z,6.92
2023-02-13T08:09:54.301Z,6.98
2023-02-13T08:13:19.461Z,7.04
2023-02-13T08:16:44.792Z,7.09
2023-02-13T08:20:09.831Z,7.19
2023-02-13T08:23:35.169Z,7.25
2023-02-13T08:27:00.259Z,7.27
2023-02-13T08:30:25.435Z,7.29
2023-02-13T08:33:50.625Z,7.3
2023-02-13T08:37:16.785Z,7.32
2023-02-13T08:40:42.024Z,7.34
2023-02-13T08:44:07.339Z,7.4
2023-02-13T08:47:32.447Z,7.46
2023-02-13T08:50:57.643Z,7.49
2023-02-13T08:54:22.821Z,7.53
2023-02-13T08:57:48.018Z,7.57
2023-02-13T09:01:13.313Z,7.63
2023-02-13T09:04:38.362Z,7.67
2023-02-13T09:08:03.683Z,7.75
2023-02-13T09:11:28.818Z,7.82
2023-02-13T09:14:56.654Z,7.88
2023-02-13T09:18:25.076Z,7.91
2023-02-13T09:21:50.235Z,7.95
2023-02-13T09:25:15.432Z,8.03
2023-02-13T09:28:40.696Z,8.09
2023-02-13T09:32:05.868Z,8.18
2023-02-13T09:35:31.004Z,8.28
2023-02-13T09:38:56.161Z,8.35
2023-02-13T09:42:21.361Z,8.42
2023-02-13T09:45:47.810Z,8.49
2023-02-13T09:49:13.021Z,8.55
2023-02-13T09:52:38.236Z,8.61
2023-02-13T09:56:03.411Z,8.66
2023-02-13T09:59:28.577Z,8.7
2023-02-13T10:02:53.801Z,8.77
2023-02-13T10:06:19.046Z,8.85
2023-02-13T10:09:44.247Z,8.9
2023-02-13T10:13:09.443Z,8.95
2023-02-13T10:16:34.669Z,8.97
2023-02-13T10:19:59.885Z,9.05
2023-02-13T10:23:25.092Z,9.12
2023-02-13T10:26:50.292Z,9.19
2023-02-13T10:30:15.478Z,9.27
2023-02-13T10:33:40.647Z,9.31
2023-02-13T10:37:05.842Z,9.34
2023-02-13T10:40:31.019Z,9.42
2023-02-13T10:43:56.231Z,9.49
2023-02-13T10:47:21.405Z,9.53
2023-02-13T10:50:46.605Z,9.62
2023-02-13T10:54:11.790Z,9.66
2023-02-13T10:57:37.006Z,9.74
2023-02-13T11:01:02.277Z,9.84
2023-02-13T11:04:27.407Z,9.88
2023-02-13T11:07:52.557Z,9.91
2023-02-13T11:11:17.781Z,9.88
2023-02-13T11:14:42.947Z,9.87
2023-02-13T11:18:08.231Z,9.96
2023-02-13T11:21:33.417Z,10.04
2023-02-13T11:24:58.597Z,10.18
2023-02-13T11:28:23.864Z,10.22
2023-02-13T11:31:49.140Z,10.25
2023-02-13T11:35:14.245Z,10.24
2023-02-13T11:38:39.433Z,10.27
2023-02-13T11:42:04.631Z,10.32
2023-02-13T11:45:29.839Z,10.35
2023-02-13T11:48:55.016Z,10.34
2023-02-13T11:52:20.259Z,10.33
2023-02-13T11:55:45.616Z,10.37
2023-02-13T11:59:10.818Z,10.42
2023-02-13T12:02:36.034Z,10.47
2023-02-13T12:06:01.355Z,10.47
2023-02-13T12:09:26.413Z,10.46
2023-02-13T12:12:51.615Z,10.48
2023-02-13T12:16:17.065Z,10.49
2023-02-13T12:19:42.187Z,10.51
2023-02-13T12:23:07.391Z,10.56
2023-02-13T12:26:32.676Z,10.53
2023-02-13T12:29:57.804Z,10.51
2023-02-13T12:33:23.008Z,10.49
2023-02-13T12:36:48.178Z,10.48
2023-02-13T12:40:13.464Z,10.46
2023-02-13T12:43:38.595Z,10.46
2023-02-13T12:47:03.757Z,10.46
2023-02-13T12:50:29.719Z,10.45
2023-02-13T12:53:54.971Z,10.42
2023-02-13T12:57:20.164Z,10.42
2023-02-13T13:00:45.408Z,10.42
2023-02-13T13:04:10.537Z,10.46
2023-02-13T13:07:35.745Z,10.46
2023-02-13T13:11:00.939Z,10.46
2023-02-13T13:14:26.148Z,10.42
2023-02-13T13:17:51.380Z,10.37
2023-02-13T13:21:16.555Z,10.35
2023-02-13T13:24:41.724Z,10.35
2023-02-13T13:28:06.928Z,10.34
2023-02-13T13:31:32.231Z,10.35
2023-02-13T13:34:57.319Z,10.37
2023-02-13T13:38:22.498Z,10.36
2023-02-13T13:41:47.716Z,10.37
2023-02-13T13:45:12.909Z,10.41
2023-02-13T13:48:38.105Z,10.38
2023-02-13T13:52:03.354Z,10.29
2023-02-13T13:55:28.537Z,10.28
2023-02-13T13:58:53.729Z,10.27
2023-02-13T14:02:19.084Z,10.24
2023-02-13T14:05:44.159Z,10.3
2023-02-13T14:09:09.393Z,10.31
2023-02-13T14:12:34.588Z,10.27
2023-02-13T14:15:59.805Z,10.27
2023-02-13T14:19:24.977Z,10.3
2023-02-13T14:22:50.185Z,10.33
2023-02-13T14:26:15.380Z,10.29
2023-02-13T14:29:40.544Z,10.27
2023-02-13T15:05:18.204Z,7.67
2023-02-13T15:08:43.462Z,8.61
2023-02-13T15:12:08.839Z,8.83
2023-02-13T15:15:34.017Z,9.05
2023-02-13T15:18:59.204Z,9.24
2023-02-13T15:22:24.455Z,9.4
2023-02-13T15:25:49.770Z,9.52
2023-02-13T15:29:25.453Z,9.57
2023-02-13T15:32:40.186Z,9.51
2023-02-13T15:36:05.393Z,9.46
2023-02-13T15:39:31.003Z,9.41
2023-02-13T15:42:56.066Z,9.4
2023-02-13T15:46:21.294Z,9.4
2023-02-13T15:49:46.449Z,9.42
2023-02-13T15:53:11.645Z,9.44
2023-02-13T15:56:36.850Z,9.44
2023-02-13T16:00:01.976Z,9.35
2023-02-13T16:03:27.152Z,9.25
2023-02-13T16:06:52.364Z,9.2
2023-02-13T16:10:17.565Z,9.13
2023-02-13T16:13:42.755Z,9.04
2023-02-13T16:17:07.940Z,8.96
2023-02-13T16:20:33.240Z,8.85
2023-02-13T16:23:58.446Z,8.76
2023-02-13T16:27:23.597Z,8.68
2023-02-13T16:30:48.821Z,8.62
2023-02-13T16:34:37.322Z,8.55
2023-02-13T16:38:02.526Z,8.48
2023-02-13T16:41:27.742Z,8.36
2023-02-13T16:44:53.077Z,8.28
2023-02-13T16:48:18.372Z,8.21
2023-02-13T16:51:43.641Z,8.16
2023-02-13T16:55:08.882Z,8.13
2023-02-13T16:58:34.093Z,8.07
2023-02-13T17:01:59.291Z,8.03
2023-02-13T17:05:24.542Z,7.97
2023-02-13T17:08:49.788Z,7.9
2023-02-13T17:12:15.946Z,7.83
2023-02-13T17:15:56.653Z,7.75
2023-02-13T17:19:21.919Z,7.71
2023-02-13T17:22:47.259Z,7.68
2023-02-13T17:26:12.475Z,7.65
2023-02-13T17:29:37.755Z,7.61
2023-02-13T17:33:02.942Z,7.59
2023-02-13T17:36:28.225Z,7.49
2023-02-13T17:39:53.513Z,7.42
2023-02-13T17:43:18.732Z,7.4
2023-02-13T17:46:43.969Z,7.33
2023-02-13T17:50:10.870Z,7.28
2023-02-13T17:53:34.561Z,7.25
2023-02-13T17:56:59.987Z,7.25
2023-02-13T18:00:25.259Z,7.3
2023-02-13T18:03:50.553Z,7.3
2023-02-13T18:07:15.785Z,7.28
2023-02-13T18:10:41.096Z,7.25
2023-02-13T18:14:06.599Z,7.22
2023-02-13T18:17:31.851Z,7.22
2023-02-13T18:20:57.470Z,7.24
2023-02-13T18:24:22.470Z,7.22
2023-02-13T18:27:47.741Z,7.22
2023-02-13T18:31:13.198Z,7.22
2023-02-13T18:34:38.352Z,7.17
2023-02-13T18:38:03.680Z,7.18
2023-02-13T18:41:28.994Z,7.18
2023-02-13T18:44:54.254Z,7.19
2023-02-13T18:48:19.488Z,7.2
2023-02-13T18:51:44.707Z,7.21
2023-02-13T18:55:09.980Z,7.23
2023-02-13T18:58:35.311Z,7.23
2023-02-13T19:02:02.150Z,7.22
2023-02-13T19:05:25.910Z,7.24
2023-02-13T19:08:51.159Z,7.24
2023-02-13T19:12:16.466Z,7.23
2023-02-13T19:15:41.767Z,7.21
2023-02-13T19:19:07.010Z,7.22
2023-02-13T19:22:32.287Z,7.21
2023-02-13T19:25:57.565Z,7.19
2023-02-13T19:29:22.791Z,7.18
2023-02-13T19:32:48.141Z,7.2
2023-02-13T19:36:13.421Z,7.19
2023-02-13T19:39:38.704Z,7.18
2023-02-13T19:43:03.982Z,7.17
2023-02-13T19:46:29.272Z,7.17
2023-02-13T19:49:54.503Z,7.15
2023-02-13T19:53:19.868Z,7.12
2023-02-13T19:56:45.221Z,7.09
2023-02-13T20:00:10.444Z,7.08
2023-02-13T20:03:35.737Z,7.04
2023-02-13T20:07:01.055Z,7.02
2023-02-13T20:10:26.306Z,7
2023-02-13T20:13:51.580Z,7.05
2023-02-13T20:17:16.865Z,7.02
2023-02-13T20:20:42.048Z,6.99
2023-02-13T20:24:07.227Z,6.99
2023-02-13T20:27:32.387Z,6.97
2023-02-13T20:30:58.084Z,6.97
2023-02-13T20:34:22.861Z,6.99
2023-02-13T20:37:48.033Z,7.01
2023-02-13T20:41:13.274Z,6.99
2023-02-13T20:44:38.440Z,7.01
2023-02-13T20:48:03.755Z,7
2023-02-13T20:51:28.816Z,6.99
2023-02-13T20:54:53.980Z,7.01
2023-02-13T20:58:19.183Z,6.99
2023-02-13T21:01:44.369Z,6.97
2023-02-13T21:05:09.740Z,6.94
2023-02-13T21:08:35.145Z,6.95
2023-02-13T21:12:00.464Z,6.93
2023-02-13T21:15:26.556Z,6.91
2023-02-13T21:18:52.168Z,6.89
2023-02-13T21:22:17.610Z,6.9
2023-02-13T21:25:42.920Z,6.91
2023-02-13T21:29:08.086Z,6.91
2023-02-13T21:32:33.268Z,6.87
2023-02-13T21:35:58.438Z,6.86
2023-02-13T21:39:23.666Z,6.84
2023-02-13T21:42:48.823Z,6.82
2023-02-13T21:46:14.005Z,6.84
2023-02-13T21:49:39.155Z,6.87
2023-02-13T21:53:04.323Z,6.89
2023-02-13T21:56:29.531Z,6.93
2023-02-13T21:59:54.663Z,6.96
2023-02-13T22:03:19.852Z,6.99
2023-02-13T22:06:45.022Z,7.01
2023-02-13T22:10:10.180Z,7.05
2023-02-13T22:13:35.384Z,7.04
2023-02-13T22:17:00.580Z,7.05
2023-02-13T22:20:25.708Z,7
2023-02-13T22:23:50.872Z,6.97
2023-02-13T22:27:16.054Z,6.97
2023-02-13T22:30:41.369Z,6.98
2023-02-13T22:34:06.427Z,6.97
2023-02-13T22:37:31.572Z,6.9
2023-02-13T22:40:57.141Z,6.86
2023-02-13T22:44:21.953Z,6.85
2023-02-13T22:47:47.176Z,6.84
2023-02-13T22:51:12.306Z,6.82
2023-02-13T22:54:37.495Z,6.8
2023-02-13T22:58:02.662Z,6.81
2023-02-13T23:01:27.844Z,6.78
2023-02-13T23:04:53.047Z,6.76
2023-02-13T23:08:18.204Z,6.72
2023-02-13T23:11:43.367Z,6.67
2023-02-13T23:15:08.521Z,6.68
2023-02-13T23:18:33.746Z,6.68
2023-02-13T23:21:58.945Z,6.66
2023-02-13T23:25:24.084Z,6.67
2023-02-13T23:28:49.247Z,6.66
2023-02-13T23:32:14.526Z,6.68
2023-02-13T23:35:39.590Z,6.73
2023-02-13T23:39:04.805Z,6.77
2023-02-13T23:42:29.962Z,6.72
2023-02-13T23:45:55.139Z,6.73
2023-02-13T23:49:20.320Z,6.79
2023-02-13T23:52:45.494Z,6.81
2023-02-13T23:56:10.683Z,6.86
2023-02-13T23:59:35.827Z,6.91
